This demonstration page uses our WeatherBlox Daily Observations layout. Learn more.

39.01783, -85.05884

Hourly Observations for August 3, 2019

Temp ( °F °C ) Dew Point ( °F °C ) Humidity (%) Winds ( mph kmh ) Pressure ( in mb ) Visibility ( mi km ) Precip ( " mm )
12:52 am 00:52 Clear 74 23.3 55 12.8 52 52 N 6 9 30.03 1017 10 16.09344 0 0
1:52 am 01:52 Clear 70 21.1 57 13.9 64 64 N 5 7 30.03 1017 10 16.09344 0 0
2:52 am 02:52 Clear 68 20 57 13.9 68 68 N 6 9 30.03 1017 10 16.09344 0 0
4:52 am 04:52 Clear 68 20 57 13.9 68 68 NNE 3 6 30 1016 10 16.09344 0 0
5:52 am 05:52 Mostly Clear 66 18.9 57 13.9 73 73 N 7 11 30 1016 10 16.09344 0 0
6:52 am 06:52 Partly Cloudy 67 19.4 58 14.4 73 73 NNE 3 6 30.03 1017 10 16.09344 0 0
7:52 am 07:52 Partly Cloudy 69 20.6 59 15 70 70 NE 5 7 30.03 1017 10 16.09344 0 0
8:52 am 08:52 Partly Cloudy 73 22.8 60 15.6 64 64 ENE 6 9 30.03 1017 10 16.09344 0 0
9:52 am 09:52 Partly Cloudy 77 25 61 16.1 58 58 NE 7 11 30.03 1017 10 16.09344 0 0
10:52 am 10:52 Mostly Cloudy 80 26.7 61 16.1 52 52 ENE 7 11 30.03 1017 10 16.09344 0 0
11:52 am 11:52 Mostly Cloudy 83 28.3 60 15.6 46 46 VRB 6 9 30.03 1017 10 16.09344 0 0
12:52 pm 12:52 Mostly Cloudy 85 29.4 59 15 42 42 NNW 8 13 30.03 1017 10 16.09344 0 0
1:52 pm 13:52 Partly Cloudy 87 30.6 58 14.4 37 37 VRB 6 9 30 1016 10 16.09344 0 0
2:52 pm 14:52 Partly Cloudy 87 30.6 57 13.9 36 36 N 8 13 30 1016 10 16.09344 0 0
3:52 pm 15:52 Mostly Sunny 86 30 57 13.9 37 37 NE 6 9 29.97 1015 10 16.09344 0 0
4:52 pm 16:52 Mostly Sunny 88 31.1 51 10.6 28 28 NNW 6 9 29.97 1015 10 16.09344 0 0
5:52 pm 17:52 Mostly Sunny 88 31.1 48 8.9 25 25 NNW 6 9 29.97 1015 10 16.09344 0 0
6:52 pm 18:52 Mostly Sunny 86 30 54 12.2 33 33 NNW 10 17 29.94 1014 10 16.09344 0 0
7:52 pm 19:52 Mostly Sunny 83 28.3 53 11.7 36 36 NNW 9 15 29.94 1014 10 16.09344 0 0
8:52 pm 20:52 Mostly Clear 79 26.1 54 12.2 42 42 NNW 8 13 29.94 1014 10 16.09344 0 0
9:52 pm 21:52 Partly Cloudy 76 24.4 53 11.7 45 45 N 7 11 29.97 1015 10 16.09344 0 0
10:52 pm 22:52 Partly Cloudy 76 24.4 52 11.1 43 43 NNE 5 7 29.97 1015 10 16.09344 0 0
11:52 pm 23:52 Mostly Clear 72 22.2 54 12.2 53 53 Calm 29.97 1015 10 16.09344 0 0

Powered by AerisWeather